sensor_id;sensor_type;location;lat;lon;timestamp;pressure;altitude;pressure_sealevel;temperature;humidity
22647;BME280;11490;42.726;23.268;2022-07-18T00:00:46;95932.84;;;20.10;55.99
22647;BME280;11490;42.726;23.268;2022-07-18T00:03:11;95938.75;;;20.17;56.04
22647;BME280;11490;42.726;23.268;2022-07-18T00:05:37;95935.19;;;20.22;56.70
22647;BME280;11490;42.726;23.268;2022-07-18T00:08:04;95933.47;;;19.97;56.40
22647;BME280;11490;42.726;23.268;2022-07-18T00:10:29;95942.97;;;19.89;58.01
22647;BME280;11490;42.726;23.268;2022-07-18T00:12:55;95928.03;;;19.97;56.48
22647;BME280;11490;42.726;23.268;2022-07-18T00:15:20;95937.38;;;19.66;56.42
22647;BME280;11490;42.726;23.268;2022-07-18T00:17:46;95946.50;;;19.85;55.32
22647;BME280;11490;42.726;23.268;2022-07-18T00:20:11;95949.72;;;19.97;55.99
22647;BME280;11490;42.726;23.268;2022-07-18T00:22:37;95935.66;;;19.85;55.76
22647;BME280;11490;42.726;23.268;2022-07-18T00:25:03;95942.16;;;19.89;54.61
22647;BME280;11490;42.726;23.268;2022-07-18T00:27:29;95946.50;;;19.85;55.83
22647;BME280;11490;42.726;23.268;2022-07-18T00:29:54;95937.97;;;19.52;54.93
22647;BME280;11490;42.726;23.268;2022-07-18T00:32:19;95927.63;;;19.70;55.63
22647;BME280;11490;42.726;23.268;2022-07-18T00:34:45;95937.44;;;19.50;54.60
22647;BME280;11490;42.726;23.268;2022-07-18T00:37:10;95933.63;;;19.46;55.10
22647;BME280;11490;42.726;23.268;2022-07-18T00:39:36;95928.53;;;19.50;55.31
22647;BME280;11490;42.726;23.268;2022-07-18T00:42:01;95934.69;;;19.66;54.80
22647;BME280;11490;42.726;23.268;2022-07-18T00:44:27;95917.94;;;19.58;54.66
22647;BME280;11490;42.726;23.268;2022-07-18T00:46:56;95923.81;;;19.71;54.07
22647;BME280;11490;42.726;23.268;2022-07-18T00:49:23;95935.19;;;19.68;53.40
22647;BME280;11490;42.726;23.268;2022-07-18T00:51:49;95927.72;;;19.49;54.49
22647;BME280;11490;42.726;23.268;2022-07-18T00:54:15;95917.94;;;19.53;53.74
22647;BME280;11490;42.726;23.268;2022-07-18T00:56:42;95908.22;;;19.47;54.22
22647;BME280;11490;42.726;23.268;2022-07-18T00:59:07;95903.41;;;19.24;52.78
22647;BME280;11490;42.726;23.268;2022-07-18T01:01:33;95921.47;;;19.39;52.91
22647;BME280;11490;42.726;23.268;2022-07-18T01:04:18;95945.50;;;19.60;52.78
22647;BME280;11490;42.726;23.268;2022-07-18T01:06:46;95934.97;;;19.44;51.70
22647;BME280;11490;42.726;23.268;2022-07-18T01:09:12;95943.94;;;19.39;52.54
22647;BME280;11490;42.726;23.268;2022-07-18T01:11:38;95963.38;;;19.62;52.63
22647;BME280;11490;42.726;23.268;2022-07-18T01:14:05;95941.78;;;19.31;54.51
22647;BME280;11490;42.726;23.268;2022-07-18T01:16:31;95932.16;;;18.79;52.15
22647;BME280;11490;42.726;23.268;2022-07-18T01:18:56;95916.94;;;19.14;53.17
22647;BME280;11490;42.726;23.268;2022-07-18T01:21:22;95935.84;;;19.24;52.03
22647;BME280;11490;42.726;23.268;2022-07-18T01:23:48;95923.94;;;19.30;52.72
22647;BME280;11490;42.726;23.268;2022-07-18T01:26:15;95925.03;;;19.34;51.24
22647;BME280;11490;42.726;23.268;2022-07-18T01:28:41;95935.31;;;19.27;51.18
22647;BME280;11490;42.726;23.268;2022-07-18T01:31:07;95901.03;;;18.82;51.67
22647;BME280;11490;42.726;23.268;2022-07-18T01:33:33;95905.09;;;18.95;51.80
22647;BME280;11490;42.726;23.268;2022-07-18T01:36:00;95933.72;;;19.16;50.26
22647;BME280;11490;42.726;23.268;2022-07-18T01:38:29;95914.81;;;19.01;50.70
22647;BME280;11490;42.726;23.268;2022-07-18T01:40:56;95880.75;;;18.90;50.47
22647;BME280;11490;42.726;23.268;2022-07-18T01:43:25;95895.88;;;19.06;50.82
22647;BME280;11490;42.726;23.268;2022-07-18T01:45:51;95886.66;;;19.07;50.27
22647;BME280;11490;42.726;23.268;2022-07-18T01:48:17;95901.84;;;18.93;50.32
22647;BME280;11490;42.726;23.268;2022-07-18T01:50:42;95887.25;;;18.83;49.22
22647;BME280;11490;42.726;23.268;2022-07-18T01:53:08;95892.13;;;18.97;49.90
22647;BME280;11490;42.726;23.268;2022-07-18T01:55:33;95926.72;;;19.00;48.92
22647;BME280;11490;42.726;23.268;2022-07-18T01:57:59;95901.03;;;18.92;51.10
22647;BME280;11490;42.726;23.268;2022-07-18T02:00:24;95888.88;;;18.84;51.83
22647;BME280;11490;42.726;23.268;2022-07-18T02:02:50;95872.41;;;18.81;53.94
22647;BME280;11490;42.726;23.268;2022-07-18T02:05:15;95892.13;;;18.97;52.91
22647;BME280;11490;42.726;23.268;2022-07-18T02:07:41;95883.47;;;18.74;53.11
22647;BME280;11490;42.726;23.268;2022-07-18T02:10:08;95933.75;;;18.96;52.17
22647;BME280;11490;42.726;23.268;2022-07-18T02:12:35;95918.59;;;18.39;52.79
22647;BME280;11490;42.726;23.268;2022-07-18T02:15:01;95912.09;;;18.10;52.66
22647;BME280;11490;42.726;23.268;2022-07-18T02:17:27;95927.78;;;18.38;55.18
22647;BME280;11490;42.726;23.268;2022-07-18T02:19:53;95903.44;;;18.28;54.48
22647;BME280;11490;42.726;23.268;2022-07-18T02:22:18;95893.22;;;18.25;55.89
22647;BME280;11490;42.726;23.268;2022-07-18T02:24:44;95905.56;;;17.85;56.46
22647;BME280;11490;42.726;23.268;2022-07-18T02:27:10;95892.66;;;18.02;56.47
22647;BME280;11490;42.726;23.268;2022-07-18T02:29:36;95941.81;;;18.30;56.84
22647;BME280;11490;42.726;23.268;2022-07-18T02:32:02;95928.28;;;18.15;56.16
22647;BME280;11490;42.726;23.268;2022-07-18T02:34:28;95897.50;;;17.95;55.84
22647;BME280;11490;42.726;23.268;2022-07-18T02:36:53;95935.56;;;18.09;58.05
22647;BME280;11490;42.726;23.268;2022-07-18T02:39:21;95907.06;;;17.61;57.67
22647;BME280;11490;42.726;23.268;2022-07-18T02:41:47;95935.50;;;17.79;59.05
22647;BME280;11490;42.726;23.268;2022-07-18T02:44:12;95961.13;;;17.81;58.71
22647;BME280;11490;42.726;23.268;2022-07-18T02:46:38;95935.75;;;17.72;56.57
22647;BME280;11490;42.726;23.268;2022-07-18T02:49:03;95924.91;;;17.62;55.10
22647;BME280;11490;42.726;23.268;2022-07-18T02:51:29;95944.25;;;17.54;57.84
22647;BME280;11490;42.726;23.268;2022-07-18T02:53:54;95941.56;;;17.49;57.33
22647;BME280;11490;42.726;23.268;2022-07-18T02:56:20;95957.28;;;17.62;58.23
22647;BME280;11490;42.726;23.268;2022-07-18T02:58:46;95945.31;;;17.48;57.06
22647;BME280;11490;42.726;23.268;2022-07-18T03:01:11;95963.59;;;17.36;59.06
22647;BME280;11490;42.726;23.268;2022-07-18T03:03:37;95959.25;;;17.35;59.65
22647;BME280;11490;42.726;23.268;2022-07-18T03:06:02;95965.19;;;17.31;58.98
22647;BME280;11490;42.726;23.268;2022-07-18T03:08:28;95967.00;;;17.16;60.02
22647;BME280;11490;42.726;23.268;2022-07-18T03:10:53;95970.50;;;17.16;60.10
22647;BME280;11490;42.726;23.268;2022-07-18T03:13:19;95968.78;;;17.05;60.12
22647;BME280;11490;42.726;23.268;2022-07-18T03:15:44;95960.19;;;17.03;60.10
22647;BME280;11490;42.726;23.268;2022-07-18T03:18:10;95975.53;;;17.03;60.74
22647;BME280;11490;42.726;23.268;2022-07-18T03:20:35;95967.53;;;16.81;61.71
22647;BME280;11490;42.726;23.268;2022-07-18T03:23:05;95973.09;;;16.42;61.95
22647;BME280;11490;42.726;23.268;2022-07-18T03:25:31;95950.44;;;16.33;62.50
22647;BME280;11490;42.726;23.268;2022-07-18T03:27:56;95959.31;;;16.61;62.42
22647;BME280;11490;42.726;23.268;2022-07-18T03:30:22;95962.00;;;16.61;62.01
22647;BME280;11490;42.726;23.268;2022-07-18T03:32:47;95962.09;;;16.71;62.38
22647;BME280;11490;42.726;23.268;2022-07-18T03:35:13;95954.00;;;16.71;63.39
22647;BME280;11490;42.726;23.268;2022-07-18T03:37:39;95953.13;;;16.65;63.28
22647;BME280;11490;42.726;23.268;2022-07-18T03:40:04;95944.81;;;16.67;62.96
22647;BME280;11490;42.726;23.268;2022-07-18T03:42:30;95951.31;;;16.71;62.40
22647;BME280;11490;42.726;23.268;2022-07-18T03:44:55;95963.78;;;16.82;62.91
22647;BME280;11490;42.726;23.268;2022-07-18T03:47:21;95964.94;;;16.91;62.74
22647;BME280;11490;42.726;23.268;2022-07-18T03:49:46;95968.44;;;16.91;63.58
22647;BME280;11490;42.726;23.268;2022-07-18T03:52:12;95969.84;;;16.99;62.47
22647;BME280;11490;42.726;23.268;2022-07-18T03:54:37;95967.97;;;17.05;63.99
22647;BME280;11490;42.726;23.268;2022-07-18T03:57:03;95980.69;;;17.09;60.75
22647;BME280;11490;42.726;23.268;2022-07-18T03:59:28;95972.06;;;17.07;61.30
22647;BME280;11490;42.726;23.268;2022-07-18T04:01:53;95975.59;;;17.13;61.86
22647;BME280;11490;42.726;23.268;2022-07-18T04:04:19;95979.19;;;17.28;60.24
22647;BME280;11490;42.726;23.268;2022-07-18T04:06:46;95976.22;;;17.30;59.41
22647;BME280;11490;42.726;23.268;2022-07-18T04:09:12;95977.63;;;17.43;60.19
22647;BME280;11490;42.726;23.268;2022-07-18T04:11:37;95989.53;;;17.42;58.42
22647;BME280;11490;42.726;23.268;2022-07-18T04:14:02;95994.44;;;17.50;58.17
22647;BME280;11490;42.726;23.268;2022-07-18T04:16:28;95989.06;;;17.60;57.86
22647;BME280;11490;42.726;23.268;2022-07-18T04:18:53;95978.63;;;17.68;59.13
22647;BME280;11490;42.726;23.268;2022-07-18T04:21:19;95982.13;;;17.74;59.69
22647;BME280;11490;42.726;23.268;2022-07-18T04:23:44;95981.88;;;17.71;59.91
22647;BME280;11490;42.726;23.268;2022-07-18T04:26:10;95980.81;;;17.77;59.37
22647;BME280;11490;42.726;23.268;2022-07-18T04:28:36;95979.50;;;17.89;60.68
22647;BME280;11490;42.726;23.268;2022-07-18T04:31:01;95984.38;;;17.92;61.96
22647;BME280;11490;42.726;23.268;2022-07-18T04:33:27;95970.28;;;17.70;58.96
22647;BME280;11490;42.726;23.268;2022-07-18T04:35:52;95971.41;;;17.84;59.30
22647;BME280;11490;42.726;23.268;2022-07-18T04:38:18;95981.44;;;17.99;57.07
22647;BME280;11490;42.726;23.268;2022-07-18T04:40:43;95966.06;;;18.04;56.58
22647;BME280;11490;42.726;23.268;2022-07-18T04:43:08;95960.13;;;18.07;55.02
22647;BME280;11490;42.726;23.268;2022-07-18T04:45:35;95973.97;;;18.26;57.17
22647;BME280;11490;42.726;23.268;2022-07-18T04:48:02;95962.09;;;18.32;54.87
22647;BME280;11490;42.726;23.268;2022-07-18T04:50:28;95962.38;;;18.46;55.97
22647;BME280;11490;42.726;23.268;2022-07-18T04:52:56;95961.28;;;18.52;54.75
22647;BME280;11490;42.726;23.268;2022-07-18T04:55:22;95944.84;;;18.59;54.73
22647;BME280;11490;42.726;23.268;2022-07-18T04:57:49;95944.53;;;18.55;56.60
22647;BME280;11490;42.726;23.268;2022-07-18T05:00:17;95961.59;;;18.76;55.56
22647;BME280;11490;42.726;23.268;2022-07-18T05:02:45;95977.53;;;18.93;54.53
22647;BME280;11490;42.726;23.268;2022-07-18T05:05:16;95954.31;;;18.76;52.97
22647;BME280;11490;42.726;23.268;2022-07-18T05:07:43;95957.00;;;18.76;52.19
22647;BME280;11490;42.726;23.268;2022-07-18T05:10:12;95951.03;;;19.10;53.10
22647;BME280;11490;42.726;23.268;2022-07-18T05:12:43;95965.06;;;19.27;54.53
22647;BME280;11490;42.726;23.268;2022-07-18T05:15:12;95973.44;;;19.31;54.33
22647;BME280;11490;42.726;23.268;2022-07-18T05:17:38;95971.03;;;19.14;52.75
22647;BME280;11490;42.726;23.268;2022-07-18T05:20:06;95937.00;;;18.77;53.69
22647;BME280;11490;42.726;23.268;2022-07-18T05:22:33;95944.84;;;18.69;52.29
22647;BME280;11490;42.726;23.268;2022-07-18T05:25:01;95955.09;;;18.92;53.02
22647;BME280;11490;42.726;23.268;2022-07-18T05:27:27;95960.19;;;19.24;53.10
22647;BME280;11490;42.726;23.268;2022-07-18T05:29:52;95972.66;;;19.10;53.96
22647;BME280;11490;42.726;23.268;2022-07-18T05:32:18;95955.09;;;18.92;50.93
22647;BME280;11490;42.726;23.268;2022-07-18T05:34:43;95974.78;;;19.28;53.54
22647;BME280;11490;42.726;23.268;2022-07-18T05:37:09;95983.97;;;19.52;51.84
22647;BME280;11490;42.726;23.268;2022-07-18T05:39:34;95979.63;;;19.62;50.52
22647;BME280;11490;42.726;23.268;2022-07-18T05:42:01;95982.34;;;19.51;52.19
22647;BME280;11490;42.726;23.268;2022-07-18T05:44:28;95979.31;;;19.73;51.09
22647;BME280;11490;42.726;23.268;2022-07-18T05:46:53;95967.63;;;19.88;51.72
22647;BME280;11490;42.726;23.268;2022-07-18T05:49:19;95989.84;;;19.80;50.34
22647;BME280;11490;42.726;23.268;2022-07-18T05:51:45;95982.81;;;19.79;49.88
22647;BME280;11490;42.726;23.268;2022-07-18T05:54:10;95965.88;;;20.07;49.42
22647;BME280;11490;42.726;23.268;2022-07-18T05:57:30;95965.19;;;19.86;50.86
22647;BME280;11490;42.726;23.268;2022-07-18T06:03:39;95906.34;;;20.02;49.74
22647;BME280;11490;42.726;23.268;2022-07-18T06:06:05;95972.47;;;20.45;46.95
22647;BME280;11490;42.726;23.268;2022-07-18T06:08:30;95946.84;;;20.22;48.02
22647;BME280;11490;42.726;23.268;2022-07-18T06:10:56;95950.09;;;20.24;49.33
22647;BME280;11490;42.726;23.268;2022-07-18T06:13:21;95937.59;;;20.28;49.30
22647;BME280;11490;42.726;23.268;2022-07-18T06:15:47;95957.50;;;20.58;47.83
22647;BME280;11490;42.726;23.268;2022-07-18T06:18:12;95958.41;;;20.77;44.79
22647;BME280;11490;42.726;23.268;2022-07-18T06:20:37;95961.81;;;20.93;44.47
22647;BME280;11490;42.726;23.268;2022-07-18T06:23:03;95926.81;;;20.91;44.19
22647;BME280;11490;42.726;23.268;2022-07-18T06:25:28;95954.22;;;21.24;44.66
22647;BME280;11490;42.726;23.268;2022-07-18T06:27:54;95945.75;;;21.30;43.97
22647;BME280;11490;42.726;23.268;2022-07-18T06:30:19;95977.31;;;21.50;44.24
22647;BME280;11490;42.726;23.268;2022-07-18T06:32:46;95954.19;;;21.52;43.33
22647;BME280;11490;42.726;23.268;2022-07-18T06:35:12;95953.16;;;21.72;40.70
22647;BME280;11490;42.726;23.268;2022-07-18T06:37:37;95967.00;;;21.95;41.12
22647;BME280;11490;42.726;23.268;2022-07-18T06:40:04;95945.84;;;21.92;42.90
22647;BME280;11490;42.726;23.268;2022-07-18T06:42:29;95952.97;;;21.87;42.04
22647;BME280;11490;42.726;23.268;2022-07-18T06:44:55;95962.50;;;22.09;41.68
22647;BME280;11490;42.726;23.268;2022-07-18T06:47:20;95959.41;;;21.97;38.19
22647;BME280;11490;42.726;23.268;2022-07-18T06:49:45;95964.13;;;22.10;39.07
22647;BME280;11490;42.726;23.268;2022-07-18T06:52:11;95956.81;;;22.29;38.75
22647;BME280;11490;42.726;23.268;2022-07-18T06:54:37;95934.31;;;22.42;39.55
22647;BME280;11490;42.726;23.268;2022-07-18T06:57:05;95948.00;;;22.37;38.11
22647;BME280;11490;42.726;23.268;2022-07-18T06:59:33;95944.38;;;22.60;39.21
22647;BME280;11490;42.726;23.268;2022-07-18T07:01:59;95934.38;;;22.56;36.21
22647;BME280;11490;42.726;23.268;2022-07-18T07:04:24;95910.53;;;22.34;35.46
22647;BME280;11490;42.726;23.268;2022-07-18T07:06:50;95943.41;;;22.89;36.83
22647;BME280;11490;42.726;23.268;2022-07-18T07:09:15;95933.84;;;22.91;35.06
22647;BME280;11490;42.726;23.268;2022-07-18T07:11:40;95948.50;;;23.09;35.50
22647;BME280;11490;42.726;23.268;2022-07-18T07:14:06;95945.69;;;23.14;35.00
22647;BME280;11490;42.726;23.268;2022-07-18T07:16:31;95932.81;;;23.33;35.27
22647;BME280;11490;42.726;23.268;2022-07-18T07:18:57;95925.97;;;23.36;35.05
22647;BME280;11490;42.726;23.268;2022-07-18T07:21:25;95903.38;;;23.35;35.94
22647;BME280;11490;42.726;23.268;2022-07-18T07:23:51;95931.53;;;23.45;34.83
22647;BME280;11490;42.726;23.268;2022-07-18T07:26:16;95923.81;;;23.52;37.07
22647;BME280;11490;42.726;23.268;2022-07-18T07:28:42;95863.66;;;23.34;34.00
22647;BME280;11490;42.726;23.268;2022-07-18T07:31:07;95920.97;;;23.57;33.63
22647;BME280;11490;42.726;23.268;2022-07-18T07:33:33;95930.56;;;23.68;36.97
22647;BME280;11490;42.726;23.268;2022-07-18T07:36:00;95916.53;;;23.61;32.77
22647;BME280;11490;42.726;23.268;2022-07-18T07:38:25;95954.22;;;24.08;33.33
22647;BME280;11490;42.726;23.268;2022-07-18T07:40:54;95948.97;;;24.26;34.12
22647;BME280;11490;42.726;23.268;2022-07-18T07:43:20;95905.38;;;24.12;31.44
22647;BME280;11490;42.726;23.268;2022-07-18T07:45:47;95945.09;;;24.40;33.67
22647;BME280;11490;42.726;23.268;2022-07-18T07:48:14;95933.78;;;24.47;33.95
22647;BME280;11490;42.726;23.268;2022-07-18T07:50:40;95923.63;;;24.25;33.38
22647;BME280;11490;42.726;23.268;2022-07-18T07:53:06;95903.91;;;24.42;33.42
22647;BME280;11490;42.726;23.268;2022-07-18T07:55:31;95922.03;;;24.60;31.44
22647;BME280;11490;42.726;23.268;2022-07-18T07:57:56;95914.72;;;24.33;33.47
22647;BME280;11490;42.726;23.268;2022-07-18T08:00:22;95937.34;;;24.70;32.28
22647;BME280;11490;42.726;23.268;2022-07-18T08:05:20;95897.72;;;24.72;32.71
22647;BME280;11490;42.726;23.268;2022-07-18T08:07:58;95895.63;;;24.91;33.90
22647;BME280;11490;42.726;23.268;2022-07-18T08:10:25;95944.38;;;24.84;31.71
22647;BME280;11490;42.726;23.268;2022-07-18T08:12:50;95926.72;;;24.46;31.39
22647;BME280;11490;42.726;23.268;2022-07-18T08:15:16;95917.47;;;24.20;30.60
22647;BME280;11490;42.726;23.268;2022-07-18T08:17:41;95917.38;;;24.61;35.32
22647;BME280;11490;42.726;23.268;2022-07-18T08:20:07;95926.38;;;25.06;32.31
22647;BME280;11490;42.726;23.268;2022-07-18T08:22:33;95919.38;;;25.13;33.30
22647;BME280;11490;42.726;23.268;2022-07-18T08:25:00;95921.84;;;25.32;31.14
22647;BME280;11490;42.726;23.268;2022-07-18T08:27:25;95913.28;;;25.16;29.50
22647;BME280;11490;42.726;23.268;2022-07-18T08:29:51;95927.28;;;25.54;29.96
22647;BME280;11490;42.726;23.268;2022-07-18T08:32:16;95910.00;;;25.06;28.89
22647;BME280;11490;42.726;23.268;2022-07-18T08:34:42;95934.91;;;25.66;30.24
22647;BME280;11490;42.726;23.268;2022-07-18T08:37:07;95931.25;;;25.48;29.34
22647;BME280;11490;42.726;23.268;2022-07-18T08:39:32;95915.66;;;25.80;28.75
22647;BME280;11490;42.726;23.268;2022-07-18T08:42:00;95902.69;;;25.85;28.00
22647;BME280;11490;42.726;23.268;2022-07-18T08:44:28;95911.78;;;24.88;29.16
22647;BME280;11490;42.726;23.268;2022-07-18T08:46:56;95935.50;;;25.54;30.90
22647;BME280;11490;42.726;23.268;2022-07-18T08:49:22;95911.38;;;25.56;30.15
22647;BME280;11490;42.726;23.268;2022-07-18T08:51:49;95916.84;;;25.56;30.13
22647;BME280;11490;42.726;23.268;2022-07-18T08:54:15;95909.88;;;25.42;29.91
22647;BME280;11490;42.726;23.268;2022-07-18T08:56:40;95914.69;;;25.76;31.43
22647;BME280;11490;42.726;23.268;2022-07-18T08:59:06;95927.31;;;26.11;31.42
22647;BME280;11490;42.726;23.268;2022-07-18T09:01:34;95919.31;;;26.23;30.08
22647;BME280;11490;42.726;23.268;2022-07-18T09:03:59;95905.38;;;25.77;29.50
22647;BME280;11490;42.726;23.268;2022-07-18T09:06:50;95912.28;;;25.43;31.79
22647;BME280;11490;42.726;23.268;2022-07-18T09:09:17;95890.94;;;25.85;31.90
22647;BME280;11490;42.726;23.268;2022-07-18T09:11:55;95928.59;;;26.05;34.62
22647;BME280;11490;42.726;23.268;2022-07-18T09:14:42;95910.34;;;26.49;32.31
22647;BME280;11490;42.726;23.268;2022-07-18T09:17:11;95903.44;;;26.68;34.11
22647;BME280;11490;42.726;23.268;2022-07-18T09:19:41;95897.47;;;26.92;32.08
22647;BME280;11490;42.726;23.268;2022-07-18T09:22:21;95902.25;;;27.12;32.65
22647;BME280;11490;42.726;23.268;2022-07-18T09:32:47;95909.53;;;26.91;32.51
22647;BME280;11490;42.726;23.268;2022-07-18T09:35:19;95923.78;;;27.40;32.21
22647;BME280;11490;42.726;23.268;2022-07-18T09:38:01;95931.81;;;27.45;32.96
22647;BME280;11490;42.726;23.268;2022-07-18T09:40:53;95919.91;;;27.41;30.64
22647;BME280;11490;42.726;23.268;2022-07-18T09:43:21;95923.50;;;27.79;35.38
22647;BME280;11490;42.726;23.268;2022-07-18T09:45:49;95889.06;;;26.80;30.21
22647;BME280;11490;42.726;23.268;2022-07-18T09:48:19;95899.97;;;27.32;30.86
22647;BME280;11490;42.726;23.268;2022-07-18T09:53:35;95905.19;;;27.07;31.38
22647;BME280;11490;42.726;23.268;2022-07-18T09:56:06;95888.94;;;26.33;31.68
22647;BME280;11490;42.726;23.268;2022-07-18T09:58:43;95869.44;;;25.52;32.16
22647;BME280;11490;42.726;23.268;2022-07-18T10:01:15;95896.81;;;26.78;33.30
22647;BME280;11490;42.726;23.268;2022-07-18T10:03:40;95878.72;;;27.11;33.99
22647;BME280;11490;42.726;23.268;2022-07-18T10:06:06;95902.22;;;27.21;33.32
22647;BME280;11490;42.726;23.268;2022-07-18T10:08:33;95891.84;;;27.44;31.41
22647;BME280;11490;42.726;23.268;2022-07-18T10:11:00;95875.56;;;27.56;30.90
22647;BME280;11490;42.726;23.268;2022-07-18T10:13:28;95883.22;;;28.01;31.08
22647;BME280;11490;42.726;23.268;2022-07-18T10:15:55;95912.63;;;27.91;31.26
22647;BME280;11490;42.726;23.268;2022-07-18T10:18:26;95877.00;;;27.45;29.42
22647;BME280;11490;42.726;23.268;2022-07-18T10:21:07;95888.53;;;27.97;33.17
22647;BME280;11490;42.726;23.268;2022-07-18T10:23:39;95873.09;;;27.92;31.73
22647;BME280;11490;42.726;23.268;2022-07-18T10:26:23;95885.56;;;28.40;33.99
22647;BME280;11490;42.726;23.268;2022-07-18T10:29:12;95889.81;;;28.29;31.18
22647;BME280;11490;42.726;23.268;2022-07-18T10:31:40;95871.34;;;28.17;31.42
22647;BME280;11490;42.726;23.268;2022-07-18T10:36:34;95867.34;;;27.56;30.85
22647;BME280;11490;42.726;23.268;2022-07-18T10:47:04;95872.34;;;27.83;31.91
22647;BME280;11490;42.726;23.268;2022-07-18T10:57:37;95834.91;;;27.87;32.90
22647;BME280;11490;42.726;23.268;2022-07-18T11:00:12;95835.84;;;27.91;32.16
22647;BME280;11490;42.726;23.268;2022-07-18T11:02:41;95848.81;;;28.03;34.30
22647;BME280;11490;42.726;23.268;2022-07-18T11:05:42;95812.97;;;27.87;32.54
22647;BME280;11490;42.726;23.268;2022-07-18T11:08:15;95840.16;;;28.43;32.32
22647;BME280;11490;42.726;23.268;2022-07-18T11:18:22;95826.47;;;27.92;30.59
22647;BME280;11490;42.726;23.268;2022-07-18T11:20:48;95815.56;;;28.05;31.89
22647;BME280;11490;42.726;23.268;2022-07-18T11:23:19;95830.91;;;28.47;33.07
22647;BME280;11490;42.726;23.268;2022-07-18T11:25:53;95820.66;;;28.56;29.70
22647;BME280;11490;42.726;23.268;2022-07-18T11:28:20;95825.06;;;28.69;32.14
22647;BME280;11490;42.726;23.268;2022-07-18T11:31:03;95817.44;;;27.71;30.78
22647;BME280;11490;42.726;23.268;2022-07-18T11:33:32;95841.22;;;28.50;32.31
22647;BME280;11490;42.726;23.268;2022-07-18T11:36:12;95849.59;;;27.53;30.35
22647;BME280;11490;42.726;23.268;2022-07-18T11:38:39;95825.38;;;27.64;30.86
22647;BME280;11490;42.726;23.268;2022-07-18T11:41:10;95819.75;;;27.61;30.14
22647;BME280;11490;42.726;23.268;2022-07-18T11:43:35;95804.22;;;27.65;29.13
22647;BME280;11490;42.726;23.268;2022-07-18T11:46:10;95770.72;;;27.59;29.72
22647;BME280;11490;42.726;23.268;2022-07-18T11:48:39;95831.03;;;28.09;28.89
22647;BME280;11490;42.726;23.268;2022-07-18T11:51:13;95808.25;;;27.67;27.96
22647;BME280;11490;42.726;23.268;2022-07-18T11:53:50;95831.72;;;27.56;30.37
22647;BME280;11490;42.726;23.268;2022-07-18T11:56:16;95821.53;;;27.86;28.35
22647;BME280;11490;42.726;23.268;2022-07-18T11:58:43;95829.81;;;27.98;29.85
22647;BME280;11490;42.726;23.268;2022-07-18T12:01:12;95809.69;;;28.15;30.55
22647;BME280;11490;42.726;23.268;2022-07-18T12:03:46;95820.34;;;28.37;31.01
22647;BME280;11490;42.726;23.268;2022-07-18T12:06:22;95788.63;;;28.07;31.42
22647;BME280;11490;42.726;23.268;2022-07-18T12:08:53;95775.09;;;27.81;32.94
22647;BME280;11490;42.726;23.268;2022-07-18T12:11:33;95777.91;;;28.14;32.37
22647;BME280;11490;42.726;23.268;2022-07-18T12:14:03;95805.75;;;28.45;31.67
22647;BME280;11490;42.726;23.268;2022-07-18T12:16:40;95800.88;;;28.30;30.48
22647;BME280;11490;42.726;23.268;2022-07-18T12:19:20;95773.66;;;28.25;31.35
22647;BME280;11490;42.726;23.268;2022-07-18T12:21:59;95794.25;;;28.31;30.45
22647;BME280;11490;42.726;23.268;2022-07-18T12:24:39;95810.81;;;28.55;30.65
22647;BME280;11490;42.726;23.268;2022-07-18T12:30:51;95805.19;;;27.89;31.27
22647;BME280;11490;42.726;23.268;2022-07-18T12:37:17;95799.97;;;27.96;30.55
22647;BME280;11490;42.726;23.268;2022-07-18T12:49:51;95779.88;;;26.87;32.11
22647;BME280;11490;42.726;23.268;2022-07-18T12:52:18;95765.66;;;27.02;32.88
22647;BME280;11490;42.726;23.268;2022-07-18T12:54:44;95777.94;;;27.34;33.76
22647;BME280;11490;42.726;23.268;2022-07-18T12:57:09;95733.50;;;26.82;32.83
22647;BME280;11490;42.726;23.268;2022-07-18T12:59:35;95734.06;;;27.13;33.77
22647;BME280;11490;42.726;23.268;2022-07-18T13:02:00;95753.63;;;27.33;34.67
22647;BME280;11490;42.726;23.268;2022-07-18T13:04:26;95736.94;;;27.46;33.13
22647;BME280;11490;42.726;23.268;2022-07-18T13:06:51;95750.19;;;27.65;32.40
22647;BME280;11490;42.726;23.268;2022-07-18T13:09:16;95773.16;;;27.61;32.29
22647;BME280;11490;42.726;23.268;2022-07-18T13:11:42;95785.56;;;27.87;32.80
22647;BME280;11490;42.726;23.268;2022-07-18T13:14:12;95743.00;;;27.81;34.25
22647;BME280;11490;42.726;23.268;2022-07-18T13:16:38;95756.91;;;27.97;33.97
22647;BME280;11490;42.726;23.268;2022-07-18T13:19:03;95730.91;;;27.32;30.87
22647;BME280;11490;42.726;23.268;2022-07-18T13:21:29;95730.16;;;27.73;32.21
22647;BME280;11490;42.726;23.268;2022-07-18T13:23:54;95745.13;;;27.96;31.95
22647;BME280;11490;42.726;23.268;2022-07-18T13:26:19;95763.88;;;28.15;33.32
22647;BME280;11490;42.726;23.268;2022-07-18T13:28:45;95716.66;;;27.68;32.02
22647;BME280;11490;42.726;23.268;2022-07-18T13:31:12;95750.63;;;27.76;32.99
22647;BME280;11490;42.726;23.268;2022-07-18T13:33:37;95751.16;;;27.69;33.58
22647;BME280;11490;42.726;23.268;2022-07-18T13:36:02;95745.75;;;27.52;32.71
22647;BME280;11490;42.726;23.268;2022-07-18T13:38:28;95755.41;;;27.58;33.45
22647;BME280;11490;42.726;23.268;2022-07-18T13:40:53;95767.59;;;27.69;32.39
22647;BME280;11490;42.726;23.268;2022-07-18T13:43:19;95763.00;;;27.52;32.85
22647;BME280;11490;42.726;23.268;2022-07-18T13:45:45;95768.53;;;27.44;32.55
22647;BME280;11490;42.726;23.268;2022-07-18T13:48:10;95759.59;;;27.64;33.00
22647;BME280;11490;42.726;23.268;2022-07-18T13:50:36;95759.66;;;27.47;32.06
22647;BME280;11490;42.726;23.268;2022-07-18T13:53:01;95756.38;;;27.62;32.39